Terminal Aerodrome Forecast
Issued by NWS

Home | Current Version | Previous Version | Text Only | Print | Product List | Glossary On
Versions: 1 2 3 4 5 6 7 8 9 10 11 12 13 14 15 16
000
FTUS41 KGYX 040520
TAFPSM
TAF
KPSM 040520Z 0406/0506 03010G19KT P6SM BKN100
     FM041200 06013KT P6SM FEW250
     FM041800 12012KT P6SM SCT250
     FM050100 VRB03KT P6SM SKC=

USA.gov is the U.S. government's official web portal to all federal, state and local government web resources and services.